sensor_id;sensor_type;location;lat;lon;timestamp;P1;durP1;ratioP1;P2;durP2;ratioP2
76701;SDS011;65630;44.498;0.166;2023-04-26T00:03:48;191.50;;;10.87;;
76701;SDS011;65630;44.498;0.166;2023-04-26T00:09:21;135.07;;;9.73;;
76701;SDS011;65630;44.498;0.166;2023-04-26T00:14:54;383.90;;;15.43;;
76701;SDS011;65630;44.498;0.166;2023-04-26T00:20:27;241.23;;;12.13;;
76701;SDS011;65630;44.498;0.166;2023-04-26T00:26:00;214.57;;;11.40;;
76701;SDS011;65630;44.498;0.166;2023-04-26T00:37:05;312.70;;;16.30;;
76701;SDS011;65630;44.498;0.166;2023-04-26T00:42:39;214.87;;;12.93;;
76701;SDS011;65630;44.498;0.166;2023-04-26T00:48:12;451.47;;;18.20;;
76701;SDS011;65630;44.498;0.166;2023-04-26T00:53:46;191.30;;;11.63;;
76701;SDS011;65630;44.498;0.166;2023-04-26T00:59:18;403.33;;;17.23;;
76701;SDS011;65630;44.498;0.166;2023-04-26T01:04:50;225.43;;;14.43;;
76701;SDS011;65630;44.498;0.166;2023-04-26T01:10:24;239.67;;;10.77;;
76701;SDS011;65630;44.498;0.166;2023-04-26T01:15:57;258.53;;;12.17;;
76701;SDS011;65630;44.498;0.166;2023-04-26T01:21:29;367.97;;;13.03;;
76701;SDS011;65630;44.498;0.166;2023-04-26T01:27:01;96.07;;;7.97;;
76701;SDS011;65630;44.498;0.166;2023-04-26T01:32:34;299.00;;;16.53;;
76701;SDS011;65630;44.498;0.166;2023-04-26T01:38:08;80.27;;;7.57;;
76701;SDS011;65630;44.498;0.166;2023-04-26T01:43:40;208.47;;;10.57;;
76701;SDS011;65630;44.498;0.166;2023-04-26T01:49:12;241.77;;;10.43;;
76701;SDS011;65630;44.498;0.166;2023-04-26T01:54:44;141.43;;;10.60;;
76701;SDS011;65630;44.498;0.166;2023-04-26T02:00:18;113.50;;;8.70;;
76701;SDS011;65630;44.498;0.166;2023-04-26T02:05:50;13.97;;;5.83;;
76701;SDS011;65630;44.498;0.166;2023-04-26T02:11:24;75.83;;;6.87;;
76701;SDS011;65630;44.498;0.166;2023-04-26T02:16:57;11.90;;;5.27;;
76701;SDS011;65630;44.498;0.166;2023-04-26T02:22:29;9.17;;;4.07;;
76701;SDS011;65630;44.498;0.166;2023-04-26T02:28:03;9.80;;;4.13;;
76701;SDS011;65630;44.498;0.166;2023-04-26T02:33:36;7.17;;;4.17;;
76701;SDS011;65630;44.498;0.166;2023-04-26T02:39:09;12.73;;;4.37;;
76701;SDS011;65630;44.498;0.166;2023-04-26T02:44:42;10.43;;;4.27;;
76701;SDS011;65630;44.498;0.166;2023-04-26T02:50:16;7.90;;;4.00;;
76701;SDS011;65630;44.498;0.166;2023-04-26T02:55:50;10.27;;;3.73;;
76701;SDS011;65630;44.498;0.166;2023-04-26T03:01:22;7.03;;;3.10;;
76701;SDS011;65630;44.498;0.166;2023-04-26T03:06:54;6.83;;;3.33;;
76701;SDS011;65630;44.498;0.166;2023-04-26T03:12:26;6.17;;;3.40;;
76701;SDS011;65630;44.498;0.166;2023-04-26T03:18:00;7.27;;;3.03;;
76701;SDS011;65630;44.498;0.166;2023-04-26T03:23:33;9.53;;;3.10;;
76701;SDS011;65630;44.498;0.166;2023-04-26T03:29:05;6.03;;;2.87;;
76701;SDS011;65630;44.498;0.166;2023-04-26T03:34:39;7.03;;;2.50;;
76701;SDS011;65630;44.498;0.166;2023-04-26T03:40:12;4.53;;;2.27;;
76701;SDS011;65630;44.498;0.166;2023-04-26T03:45:46;6.60;;;2.77;;
76701;SDS011;65630;44.498;0.166;2023-04-26T03:51:19;9.77;;;2.57;;
76701;SDS011;65630;44.498;0.166;2023-04-26T03:56:51;8.50;;;3.20;;
76701;SDS011;65630;44.498;0.166;2023-04-26T04:02:25;8.60;;;3.27;;
76701;SDS011;65630;44.498;0.166;2023-04-26T04:07:58;9.87;;;3.37;;
76701;SDS011;65630;44.498;0.166;2023-04-26T04:13:31;12.60;;;3.37;;
76701;SDS011;65630;44.498;0.166;2023-04-26T04:19:03;12.97;;;2.73;;
76701;SDS011;65630;44.498;0.166;2023-04-26T04:24:36;7.63;;;2.97;;
76701;SDS011;65630;44.498;0.166;2023-04-26T04:30:09;9.30;;;2.93;;
76701;SDS011;65630;44.498;0.166;2023-04-26T04:35:41;11.80;;;3.37;;
76701;SDS011;65630;44.498;0.166;2023-04-26T04:41:13;11.63;;;2.83;;
76701;SDS011;65630;44.498;0.166;2023-04-26T04:46:46;5.53;;;2.67;;
76701;SDS011;65630;44.498;0.166;2023-04-26T04:52:19;10.43;;;3.17;;
76701;SDS011;65630;44.498;0.166;2023-04-26T04:57:53;10.07;;;3.57;;
76701;SDS011;65630;44.498;0.166;2023-04-26T05:03:26;12.07;;;2.73;;
76701;SDS011;65630;44.498;0.166;2023-04-26T05:08:59;14.13;;;3.17;;
76701;SDS011;65630;44.498;0.166;2023-04-26T05:14:32;132.13;;;5.53;;
76701;SDS011;65630;44.498;0.166;2023-04-26T05:20:04;180.30;;;6.03;;
76701;SDS011;65630;44.498;0.166;2023-04-26T05:25:37;133.60;;;6.90;;
76701;SDS011;65630;44.498;0.166;2023-04-26T05:31:09;93.73;;;6.17;;
76701;SDS011;65630;44.498;0.166;2023-04-26T05:36:43;153.57;;;6.90;;
76701;SDS011;65630;44.498;0.166;2023-04-26T05:42:16;136.87;;;7.33;;
76701;SDS011;65630;44.498;0.166;2023-04-26T05:47:50;117.47;;;5.93;;
76701;SDS011;65630;44.498;0.166;2023-04-26T05:53:21;65.40;;;5.83;;
76701;SDS011;65630;44.498;0.166;2023-04-26T05:58:55;155.37;;;7.17;;
76701;SDS011;65630;44.498;0.166;2023-04-26T06:04:28;144.63;;;6.73;;
76701;SDS011;65630;44.498;0.166;2023-04-26T06:10:00;64.43;;;5.40;;
76701;SDS011;65630;44.498;0.166;2023-04-26T06:15:33;96.43;;;7.00;;
76701;SDS011;65630;44.498;0.166;2023-04-26T06:21:06;31.03;;;4.00;;
76701;SDS011;65630;44.498;0.166;2023-04-26T06:26:38;5.17;;;2.57;;
76701;SDS011;65630;44.498;0.166;2023-04-26T06:32:11;12.03;;;2.43;;
76701;SDS011;65630;44.498;0.166;2023-04-26T06:37:45;4.07;;;2.10;;
76701;SDS011;65630;44.498;0.166;2023-04-26T06:43:18;5.70;;;2.47;;
76701;SDS011;65630;44.498;0.166;2023-04-26T06:48:51;3.90;;;2.13;;
76701;SDS011;65630;44.498;0.166;2023-04-26T06:54:27;5.97;;;2.20;;
76701;SDS011;65630;44.498;0.166;2023-04-26T06:59:57;8.27;;;3.47;;
76701;SDS011;65630;44.498;0.166;2023-04-26T07:05:30;3.67;;;2.00;;
76701;SDS011;65630;44.498;0.166;2023-04-26T07:11:08;4.07;;;1.90;;
76701;SDS011;65630;44.498;0.166;2023-04-26T07:16:36;4.37;;;1.77;;
76701;SDS011;65630;44.498;0.166;2023-04-26T07:22:09;3.80;;;1.73;;
76701;SDS011;65630;44.498;0.166;2023-04-26T07:27:42;2.57;;;1.40;;
76701;SDS011;65630;44.498;0.166;2023-04-26T07:33:14;2.00;;;1.17;;
76701;SDS011;65630;44.498;0.166;2023-04-26T07:38:48;3.10;;;0.80;;
76701;SDS011;65630;44.498;0.166;2023-04-26T07:44:22;0.60;;;0.60;;
76701;SDS011;65630;44.498;0.166;2023-04-26T07:49:54;2.40;;;0.50;;
76701;SDS011;65630;44.498;0.166;2023-04-26T07:55:27;0.67;;;0.47;;
76701;SDS011;65630;44.498;0.166;2023-04-26T08:00:59;0.60;;;0.50;;
76701;SDS011;65630;44.498;0.166;2023-04-26T08:06:31;3.00;;;0.50;;
76701;SDS011;65630;44.498;0.166;2023-04-26T08:12:05;1.43;;;0.37;;
76701;SDS011;65630;44.498;0.166;2023-04-26T08:17:37;2.47;;;0.87;;
76701;SDS011;65630;44.498;0.166;2023-04-26T08:23:09;0.50;;;0.50;;
76701;SDS011;65630;44.498;0.166;2023-04-26T08:28:42;0.83;;;0.77;;
76701;SDS011;65630;44.498;0.166;2023-04-26T08:34:16;4.07;;;0.80;;
76701;SDS011;65630;44.498;0.166;2023-04-26T08:39:48;5.27;;;0.80;;
76701;SDS011;65630;44.498;0.166;2023-04-26T08:45:22;0.70;;;0.57;;
76701;SDS011;65630;44.498;0.166;2023-04-26T08:50:54;1.20;;;0.70;;
76701;SDS011;65630;44.498;0.166;2023-04-26T08:56:26;1.40;;;0.60;;
76701;SDS011;65630;44.498;0.166;2023-04-26T09:01:59;0.93;;;0.40;;
76701;SDS011;65630;44.498;0.166;2023-04-26T09:07:34;0.43;;;0.40;;
76701;SDS011;65630;44.498;0.166;2023-04-26T09:13:04;0.30;;;0.30;;
76701;SDS011;65630;44.498;0.166;2023-04-26T09:24:11;0.40;;;0.30;;
76701;SDS011;65630;44.498;0.166;2023-04-26T09:35:21;0.70;;;0.50;;
76701;SDS011;65630;44.498;0.166;2023-04-26T09:40:50;7.57;;;1.50;;
76701;SDS011;65630;44.498;0.166;2023-04-26T09:46:22;2.70;;;0.40;;
76701;SDS011;65630;44.498;0.166;2023-04-26T09:51:59;0.63;;;0.50;;
76701;SDS011;65630;44.498;0.166;2023-04-26T09:57:28;0.40;;;0.30;;
76701;SDS011;65630;44.498;0.166;2023-04-26T10:03:02;2.37;;;0.43;;
76701;SDS011;65630;44.498;0.166;2023-04-26T10:08:36;0.20;;;0.20;;
76701;SDS011;65630;44.498;0.166;2023-04-26T10:14:08;0.80;;;0.73;;
76701;SDS011;65630;44.498;0.166;2023-04-26T10:19:41;0.43;;;0.23;;
76701;SDS011;65630;44.498;0.166;2023-04-26T10:25:13;0.50;;;0.20;;
76701;SDS011;65630;44.498;0.166;2023-04-26T10:30:54;0.27;;;0.27;;
76701;SDS011;65630;44.498;0.166;2023-04-26T10:36:19;0.30;;;0.30;;
76701;SDS011;65630;44.498;0.166;2023-04-26T10:41:53;0.50;;;0.30;;
76701;SDS011;65630;44.498;0.166;2023-04-26T10:47:26;0.70;;;0.60;;
76701;SDS011;65630;44.498;0.166;2023-04-26T10:53:05;0.50;;;0.40;;
76701;SDS011;65630;44.498;0.166;2023-04-26T10:58:32;8.40;;;4.53;;
76701;SDS011;65630;44.498;0.166;2023-04-26T11:04:06;1.77;;;0.70;;
76701;SDS011;65630;44.498;0.166;2023-04-26T11:09:37;9.23;;;5.53;;
76701;SDS011;65630;44.498;0.166;2023-04-26T11:15:10;2.00;;;0.80;;
76701;SDS011;65630;44.498;0.166;2023-04-26T11:20:42;2.10;;;0.50;;
76701;SDS011;65630;44.498;0.166;2023-04-26T11:26:15;0.67;;;0.57;;
76701;SDS011;65630;44.498;0.166;2023-04-26T11:31:50;1.93;;;0.30;;
76701;SDS011;65630;44.498;0.166;2023-04-26T11:37:22;0.30;;;0.30;;
76701;SDS011;65630;44.498;0.166;2023-04-26T11:42:57;0.60;;;0.40;;
76701;SDS011;65630;44.498;0.166;2023-04-26T11:48:27;0.50;;;0.40;;
76701;SDS011;65630;44.498;0.166;2023-04-26T11:53:59;1.03;;;0.40;;
76701;SDS011;65630;44.498;0.166;2023-04-26T11:59:33;0.40;;;0.40;;
76701;SDS011;65630;44.498;0.166;2023-04-26T12:05:05;0.40;;;0.37;;
76701;SDS011;65630;44.498;0.166;2023-04-26T12:10:38;0.50;;;0.40;;
76701;SDS011;65630;44.498;0.166;2023-04-26T12:16:11;1.07;;;0.40;;
76701;SDS011;65630;44.498;0.166;2023-04-26T12:21:45;0.73;;;0.30;;
76701;SDS011;65630;44.498;0.166;2023-04-26T12:27:19;2.20;;;0.40;;
76701;SDS011;65630;44.498;0.166;2023-04-26T12:32:50;0.63;;;0.40;;
76701;SDS011;65630;44.498;0.166;2023-04-26T12:38:23;0.67;;;0.30;;
76701;SDS011;65630;44.498;0.166;2023-04-26T12:43:55;0.60;;;0.30;;
76701;SDS011;65630;44.498;0.166;2023-04-26T12:49:27;0.80;;;0.37;;
76701;SDS011;65630;44.498;0.166;2023-04-26T12:55:01;0.47;;;0.40;;
76701;SDS011;65630;44.498;0.166;2023-04-26T13:00:33;1.97;;;1.17;;
76701;SDS011;65630;44.498;0.166;2023-04-26T13:06:05;0.90;;;0.37;;
76701;SDS011;65630;44.498;0.166;2023-04-26T13:11:39;2.77;;;0.60;;
76701;SDS011;65630;44.498;0.166;2023-04-26T13:17:11;0.90;;;0.40;;
76701;SDS011;65630;44.498;0.166;2023-04-26T13:22:44;0.60;;;0.40;;
76701;SDS011;65630;44.498;0.166;2023-04-26T13:28:17;1.67;;;0.70;;
76701;SDS011;65630;44.498;0.166;2023-04-26T13:39:24;1.97;;;0.47;;
76701;SDS011;65630;44.498;0.166;2023-04-26T13:44:57;2.13;;;0.53;;
76701;SDS011;65630;44.498;0.166;2023-04-26T13:50:30;0.60;;;0.37;;
76701;SDS011;65630;44.498;0.166;2023-04-26T13:56:04;2.03;;;0.30;;
76701;SDS011;65630;44.498;0.166;2023-04-26T14:01:37;1.90;;;0.80;;
76701;SDS011;65630;44.498;0.166;2023-04-26T14:07:11;1.50;;;1.03;;
76701;SDS011;65630;44.498;0.166;2023-04-26T14:12:43;0.70;;;0.43;;
76701;SDS011;65630;44.498;0.166;2023-04-26T14:18:16;2.77;;;1.20;;
76701;SDS011;65630;44.498;0.166;2023-04-26T14:23:49;0.63;;;0.60;;
76701;SDS011;65630;44.498;0.166;2023-04-26T14:29:23;0.40;;;0.40;;
76701;SDS011;65630;44.498;0.166;2023-04-26T14:34:55;0.40;;;0.33;;
76701;SDS011;65630;44.498;0.166;2023-04-26T14:40:28;1.57;;;0.37;;
76701;SDS011;65630;44.498;0.166;2023-04-26T14:46:01;1.17;;;0.50;;
76701;SDS011;65630;44.498;0.166;2023-04-26T14:51:35;1.70;;;0.60;;
76701;SDS011;65630;44.498;0.166;2023-04-26T14:57:09;1.67;;;0.63;;
76701;SDS011;65630;44.498;0.166;2023-04-26T15:02:41;0.57;;;0.50;;
76701;SDS011;65630;44.498;0.166;2023-04-26T15:08:14;2.57;;;0.50;;
76701;SDS011;65630;44.498;0.166;2023-04-26T15:13:47;0.97;;;0.43;;
76701;SDS011;65630;44.498;0.166;2023-04-26T15:19:19;1.47;;;0.50;;
76701;SDS011;65630;44.498;0.166;2023-04-26T15:24:51;1.20;;;0.60;;
76701;SDS011;65630;44.498;0.166;2023-04-26T15:30:24;1.53;;;0.80;;
76701;SDS011;65630;44.498;0.166;2023-04-26T15:35:56;3.50;;;0.70;;
76701;SDS011;65630;44.498;0.166;2023-04-26T15:41:29;1.00;;;0.60;;
76701;SDS011;65630;44.498;0.166;2023-04-26T15:47:02;2.60;;;1.10;;
76701;SDS011;65630;44.498;0.166;2023-04-26T15:52:36;1.93;;;0.90;;
76701;SDS011;65630;44.498;0.166;2023-04-26T15:58:09;1.97;;;0.93;;
76701;SDS011;65630;44.498;0.166;2023-04-26T16:03:41;3.67;;;0.70;;
76701;SDS011;65630;44.498;0.166;2023-04-26T16:14:46;0.83;;;0.37;;
76701;SDS011;65630;44.498;0.166;2023-04-26T16:20:18;1.67;;;0.40;;
76701;SDS011;65630;44.498;0.166;2023-04-26T16:25:51;0.77;;;0.30;;
76701;SDS011;65630;44.498;0.166;2023-04-26T16:31:23;2.17;;;0.40;;
76701;SDS011;65630;44.498;0.166;2023-04-26T16:36:55;0.53;;;0.30;;
76701;SDS011;65630;44.498;0.166;2023-04-26T16:42:28;0.30;;;0.30;;
76701;SDS011;65630;44.498;0.166;2023-04-26T16:48:00;1.90;;;0.30;;
76701;SDS011;65630;44.498;0.166;2023-04-26T16:53:33;1.00;;;0.50;;
76701;SDS011;65630;44.498;0.166;2023-04-26T16:59:06;1.30;;;0.67;;
76701;SDS011;65630;44.498;0.166;2023-04-26T17:04:38;1.67;;;0.63;;
76701;SDS011;65630;44.498;0.166;2023-04-26T17:10:10;1.17;;;0.70;;
76701;SDS011;65630;44.498;0.166;2023-04-26T17:15:42;1.37;;;0.70;;
76701;SDS011;65630;44.498;0.166;2023-04-26T17:21:16;2.63;;;0.80;;
76701;SDS011;65630;44.498;0.166;2023-04-26T17:26:49;0.97;;;0.50;;
76701;SDS011;65630;44.498;0.166;2023-04-26T17:32:21;0.40;;;0.40;;
76701;SDS011;65630;44.498;0.166;2023-04-26T17:37:55;1.43;;;0.60;;
76701;SDS011;65630;44.498;0.166;2023-04-26T17:43:27;0.97;;;0.60;;
76701;SDS011;65630;44.498;0.166;2023-04-26T17:49:01;2.37;;;0.70;;
76701;SDS011;65630;44.498;0.166;2023-04-26T17:54:33;2.13;;;0.77;;
76701;SDS011;65630;44.498;0.166;2023-04-26T18:00:07;1.47;;;0.60;;
76701;SDS011;65630;44.498;0.166;2023-04-26T18:05:40;1.97;;;0.80;;
76701;SDS011;65630;44.498;0.166;2023-04-26T18:11:12;2.03;;;1.23;;
76701;SDS011;65630;44.498;0.166;2023-04-26T18:16:45;7.63;;;2.20;;
76701;SDS011;65630;44.498;0.166;2023-04-26T18:22:18;2.77;;;1.23;;
76701;SDS011;65630;44.498;0.166;2023-04-26T18:27:51;3.90;;;2.33;;
76701;SDS011;65630;44.498;0.166;2023-04-26T18:33:25;3.20;;;0.97;;
76701;SDS011;65630;44.498;0.166;2023-04-26T18:38:57;1.13;;;0.90;;
76701;SDS011;65630;44.498;0.166;2023-04-26T18:44:30;1.80;;;0.87;;
76701;SDS011;65630;44.498;0.166;2023-04-26T18:50:04;3.87;;;1.00;;
76701;SDS011;65630;44.498;0.166;2023-04-26T18:55:36;2.00;;;1.03;;
76701;SDS011;65630;44.498;0.166;2023-04-26T19:01:09;2.37;;;1.30;;
76701;SDS011;65630;44.498;0.166;2023-04-26T19:06:41;2.43;;;1.33;;
76701;SDS011;65630;44.498;0.166;2023-04-26T19:12:13;2.77;;;1.50;;
76701;SDS011;65630;44.498;0.166;2023-04-26T19:17:46;4.47;;;1.40;;
76701;SDS011;65630;44.498;0.166;2023-04-26T19:23:19;2.23;;;1.10;;
76701;SDS011;65630;44.498;0.166;2023-04-26T19:28:52;2.53;;;1.20;;
76701;SDS011;65630;44.498;0.166;2023-04-26T19:34:24;3.63;;;1.40;;
76701;SDS011;65630;44.498;0.166;2023-04-26T19:39:57;3.43;;;1.90;;
76701;SDS011;65630;44.498;0.166;2023-04-26T19:45:29;3.33;;;2.20;;
76701;SDS011;65630;44.498;0.166;2023-04-26T19:51:03;4.23;;;2.63;;
76701;SDS011;65630;44.498;0.166;2023-04-26T19:56:36;6.07;;;2.20;;
76701;SDS011;65630;44.498;0.166;2023-04-26T20:02:09;4.67;;;2.17;;
76701;SDS011;65630;44.498;0.166;2023-04-26T20:07:42;5.07;;;2.00;;
76701;SDS011;65630;44.498;0.166;2023-04-26T20:13:16;4.13;;;2.20;;
76701;SDS011;65630;44.498;0.166;2023-04-26T20:18:48;3.83;;;2.10;;
76701;SDS011;65630;44.498;0.166;2023-04-26T20:24:20;9.97;;;3.47;;
76701;SDS011;65630;44.498;0.166;2023-04-26T20:29:52;5.40;;;3.17;;
76701;SDS011;65630;44.498;0.166;2023-04-26T20:35:26;3.93;;;1.83;;
76701;SDS011;65630;44.498;0.166;2023-04-26T20:40:57;5.47;;;2.60;;
76701;SDS011;65630;44.498;0.166;2023-04-26T20:46:30;3.90;;;2.07;;
76701;SDS011;65630;44.498;0.166;2023-04-26T20:52:03;4.13;;;2.03;;
76701;SDS011;65630;44.498;0.166;2023-04-26T20:57:35;3.27;;;1.97;;
76701;SDS011;65630;44.498;0.166;2023-04-26T21:03:08;3.73;;;2.23;;
76701;SDS011;65630;44.498;0.166;2023-04-26T21:08:41;4.07;;;2.33;;
76701;SDS011;65630;44.498;0.166;2023-04-26T21:14:14;8.80;;;4.17;;
76701;SDS011;65630;44.498;0.166;2023-04-26T21:19:47;5.77;;;3.27;;
76701;SDS011;65630;44.498;0.166;2023-04-26T21:25:20;8.97;;;4.07;;
76701;SDS011;65630;44.498;0.166;2023-04-26T21:31:00;5.83;;;3.33;;
76701;SDS011;65630;44.498;0.166;2023-04-26T21:36:27;7.43;;;4.10;;
76701;SDS011;65630;44.498;0.166;2023-04-26T21:42:00;7.17;;;4.10;;
76701;SDS011;65630;44.498;0.166;2023-04-26T21:47:32;6.07;;;4.17;;
76701;SDS011;65630;44.498;0.166;2023-04-26T21:53:05;9.47;;;5.07;;
76701;SDS011;65630;44.498;0.166;2023-04-26T21:58:37;8.53;;;5.30;;
76701;SDS011;65630;44.498;0.166;2023-04-26T22:04:11;12.43;;;7.73;;
76701;SDS011;65630;44.498;0.166;2023-04-26T22:09:43;11.63;;;6.87;;
76701;SDS011;65630;44.498;0.166;2023-04-26T22:15:16;11.03;;;6.93;;
76701;SDS011;65630;44.498;0.166;2023-04-26T22:20:50;8.87;;;5.57;;
76701;SDS011;65630;44.498;0.166;2023-04-26T22:26:23;15.57;;;8.07;;
76701;SDS011;65630;44.498;0.166;2023-04-26T22:31:57;13.47;;;7.40;;
76701;SDS011;65630;44.498;0.166;2023-04-26T22:37:29;14.73;;;6.63;;
76701;SDS011;65630;44.498;0.166;2023-04-26T22:43:02;11.73;;;7.60;;
76701;SDS011;65630;44.498;0.166;2023-04-26T22:48:35;12.77;;;6.53;;
76701;SDS011;65630;44.498;0.166;2023-04-26T22:54:08;8.63;;;4.33;;
76701;SDS011;65630;44.498;0.166;2023-04-26T22:59:41;6.83;;;4.07;;
76701;SDS011;65630;44.498;0.166;2023-04-26T23:05:16;4.07;;;2.53;;
76701;SDS011;65630;44.498;0.166;2023-04-26T23:10:48;3.80;;;1.83;;
76701;SDS011;65630;44.498;0.166;2023-04-26T23:16:20;5.07;;;1.97;;
76701;SDS011;65630;44.498;0.166;2023-04-26T23:21:53;6.30;;;1.77;;
76701;SDS011;65630;44.498;0.166;2023-04-26T23:27:27;3.90;;;1.30;;
76701;SDS011;65630;44.498;0.166;2023-04-26T23:33:01;2.83;;;1.30;;
76701;SDS011;65630;44.498;0.166;2023-04-26T23:38:33;4.47;;;1.07;;
76701;SDS011;65630;44.498;0.166;2023-04-26T23:44:05;3.03;;;1.20;;
76701;SDS011;65630;44.498;0.166;2023-04-26T23:49:37;1.70;;;1.20;;
76701;SDS011;65630;44.498;0.166;2023-04-26T23:55:09;1.87;;;1.07;;
